Date,TemperatureHighF,TemperatureAvgF,TemperatureLowF,DewpointHighF,DewpointAvgF,DewpointLowF,HumidityHigh,HumidityAvg,HumidityLow,PressureMaxIn,PressureMinIn,WindSpeedMaxMPH,WindSpeedAvgMPH,GustSpeedMaxMPH,PrecipitationSumIn
2012-1-1,41,34,28,39,32,26,95,92,87,29.87,29.47,26,12,0,0.07
2012-1-2,28,23,18,26,18,13,91,83,73,30.28,29.87,23,14,0,0.00
2012-1-3,24,19,15,17,13,10,87,76,65,30.38,30.12,13,7,0,0.00
2012-1-4,35,26,19,28,21,12,89,81,72,30.11,29.88,14,6,0,0.00
2012-1-5,42,34,25,36,30,23,94,86,73,29.99,29.66,14,5,0,0.00
2012-1-6,49,44,39,41,37,36,88,79,70,29.70,29.61,18,8,0,0.00
2012-1-7,42,36,28,36,29,24,87,78,68,30.20,29.68,17,7,0,0.00
2012-1-8,38,29,19,31,25,17,93,86,73,30.36,30.21,12,3,0,0.00
2012-1-9,41,33,26,34,30,24,95,87,70,30.26,29.87,22,8,0,0.01
2012-1-10,46,36,25,35,31,23,96,83,65,30.03,29.81,13,4,0,0.00
2012-1-11,52,39,27,37,32,25,96,78,52,29.81,29.49,8,2,0,0.00
2012-1-12,36,33,30,35,32,29,97,93,83,29.49,29.31,6,2,0,0.14
2012-1-13,30,25,21,29,23,19,97,92,88,29.98,29.34,18,9,0,0.00
2012-1-14,22,19,11,20,17,9,95,92,86,30.25,29.98,11,3,0,0.01
2012-1-15,24,19,16,18,15,13,92,85,77,30.41,30.19,13,6,0,0.00
2012-1-16,42,31,17,36,27,13,96,86,78,30.19,29.75,14,5,0,0.21
2012-1-17,36,30,21,36,29,16,97,95,83,30.11,29.51,24,10,0,0.15
2012-1-18,23,20,16,19,16,13,88,83,75,30.27,29.91,14,6,0,0.00
2012-1-19,27,14,-1,26,9,-4,95,81,68,30.19,29.70,23,10,0,0.00
2012-1-20,16,11,3,12,8,0,91,86,77,30.30,30.17,8,2,0,0.00
2012-1-21,23,13,4,15,9,0,91,83,69,30.31,30.18,8,2,0,0.09
2012-1-22,35,23,13,35,21,9,97,89,81,30.25,29.66,16,9,0,0.04
2012-1-23,43,38,30,43,36,25,98,95,82,29.77,29.37,23,12,0,0.55
2012-1-24,31,29,28,27,25,24,92,84,81,30.34,29.78,20,10,0,0.00
2012-1-25,34,31,28,29,27,24,89,85,80,30.39,30.15,8,3,0,0.00
2012-1-26,35,31,28,33,30,26,97,93,89,30.14,29.59,11,4,0,0.02
2012-1-27,39,34,31,32,30,26,97,83,61,29.94,29.59,19,7,0,0.00
2012-1-28,33,30,27,32,26,19,97,85,70,30.02,29.67,22,11,0,0.01
2012-1-29,29,24,5,23,18,1,93,78,68,30.21,29.93,17,6,0,0.00
2012-1-30,42,23,2,37,18,-2,94,84,71,30.22,29.88,13,4,0,0.01
2012-1-31,52,46,41,46,41,36,92,81,72,29.88,29.75,23,11,0,0.00
2012-2-1,44,38,35,42,34,32,91,86,79,30.15,29.80,14,6,0,0.00
2012-2-2,41,36,32,34,32,31,92,87,76,30.41,30.15,10,3,0,0.00
2012-2-3,36,34,31,34,31,28,93,89,81,30.49,30.41,6,2,0,0.00
2012-2-4,44,34,27,31,28,25,91,80,51,30.41,30.18,7,3,0,0.00
2012-2-5,38,29,24,31,26,22,94,87,73,30.30,30.17,10,4,0,0.00
2012-2-7,29,24,25,18,7,-100,68,60,63,30.39,30.38,6,-79,0,0.00
2012-2-8,33,25,16,22,17,12,92,72,56,30.39,30.25,16,5,0,0.00
2012-2-9,35,29,23,25,21,18,83,72,53,30.24,30.09,18,8,0,0.00
2012-2-11,20,17,12,17,11,-100,89,82,79,30.29,30.22,14,8,0,0.00
2012-2-12,28,23,18,19,16,12,81,75,69,30.25,30.15,19,10,0,0.00
2012-2-13,33,28,22,23,18,15,81,66,48,30.15,29.92,14,8,0,0.01
2012-2-14,32,30,26,31,28,21,95,92,73,30.00,29.84,10,4,0,0.00
2012-2-15,43,35,32,36,32,30,95,88,76,30.12,30.00,13,5,0,0.05
2012-2-16,40,36,31,37,33,28,97,91,76,30.05,29.92,16,4,0,0.29
2012-2-17,40,33,25,31,28,22,95,82,52,30.12,29.94,17,5,0,0.00
2012-2-18,32,28,20,30,23,17,97,82,67,30.26,29.94,20,9,0,0.01
2012-2-19,37,25,16,24,20,14,92,80,57,30.26,30.18,8,2,0,0.01
2012-2-20,42,29,19,28,22,17,94,77,51,30.36,30.03,12,4,0,0.00
2012-2-21,37,34,30,37,30,25,100,86,75,30.03,29.57,18,8,0,0.04
2012-2-22,42,36,31,35,30,25,95,79,60,29.61,29.40,21,9,0,0.01
2012-2-23,38,33,25,33,28,23,95,81,60,29.62,29.42,9,3,0,0.01
2012-2-24,33,31,29,31,29,26,96,91,80,29.78,29.40,21,11,0,0.12
2012-2-25,30,28,26,28,23,19,93,82,70,30.32,29.78,18,9,0,0.02
2012-2-26,38,31,21,28,23,17,86,73,60,30.36,30.02,18,7,0,0.02
2012-2-27,39,32,19,32,25,17,90,75,64,30.46,30.02,23,11,0,0.00
2012-2-28,39,30,16,30,24,14,94,80,60,30.50,30.05,18,5,0,0.00
2012-2-29,42,35,32,41,34,30,97,93,80,30.05,29.42,19,3,0,0.89
2012-3-1,38,35,32,35,32,31,97,92,80,29.86,29.53,0,0,0,0.10
2012-3-2,39,36,33,37,34,31,96,92,85,29.85,29.13,0,0,0,0.41
2012-3-3,33,30,23,32,28,21,96,91,80,29.76,29.28,0,0,0,0.00
2012-3-4,28,23,12,23,20,10,95,88,79,29.99,29.77,0,0,0,0.03
2012-3-5,28,22,16,21,16,12,88,77,66,30.37,29.99,0,0,0,0.00
2012-3-6,62,43,28,44,32,21,78,65,48,30.33,29.90,0,0,0,0.00
2012-3-7,62,58,53,50,42,34,66,56,45,29.99,29.73,0,0,0,0.00
2012-3-8,62,40,30,52,34,24,95,80,62,30.10,29.66,0,0,0,0.29
2012-3-9,35,28,20,27,19,13,89,68,52,30.56,30.07,0,0,0,0.00
2012-3-10,51,38,21,32,23,14,90,56,38,30.55,30.17,0,0,0,0.00
2012-3-11,61,51,40,38,32,29,71,50,30,30.27,30.12,0,0,0,0.00
2012-3-12,63,53,48,58,47,36,96,83,52,30.12,29.68,0,0,0,0.57
2012-3-13,56,49,36,45,39,32,95,73,47,30.09,29.79,0,0,0,0.00
2012-3-14,78,58,36,61,46,30,88,65,38,30.09,29.91,0,0,0,0.00
2012-3-15,70,62,50,63,58,49,97,86,69,29.98,29.90,0,0,0,0.00
2012-3-16,74,58,49,64,55,48,98,91,66,30.08,29.97,0,0,0,0.01
2012-3-17,77,66,52,59,56,51,97,73,47,30.11,29.99,0,0,0,0.00
2012-3-18,74,64,52,60,56,50,96,77,57,30.05,29.96,0,0,0,0.00
2012-3-19,78,67,54,64,59,52,96,76,57,30.02,29.93,0,0,0,0.00
2012-3-20,82,71,61,61,58,55,86,66,41,30.05,29.95,14,3,0,0.00
2012-3-21,83,71,60,62,57,54,83,63,43,30.11,30.01,16,4,0,0.00
2012-3-22,83,68,57,61,58,53,87,71,43,30.09,30.00,18,4,0,0.00
2012-3-23,63,59,56,60,57,54,97,94,85,30.02,29.81,12,5,0,0.59
2012-3-24,64,57,52,57,54,51,100,89,75,29.88,29.78,7,3,0,0.00
2012-3-25,67,56,42,57,48,34,96,78,50,30.14,29.87,16,6,0,0.00
2012-3-26,46,37,29,33,25,20,81,62,40,30.42,30.15,14,7,0,0.00
2012-3-27,60,43,32,43,25,15,64,51,34,30.37,29.75,22,10,0,0.00
2012-3-28,62,53,44,50,42,34,83,67,55,30.01,29.68,28,13,0,0.00
2012-3-29,46,39,31,36,31,27,90,75,62,30.16,30.00,15,6,0,0.00
2012-3-30,36,34,32,34,31,28,95,90,80,30.08,29.82,18,7,0,0.56
2012-3-31,44,37,34,38,34,32,95,88,76,30.05,29.89,9,4,0,0.00
2012-4-1,59,48,37,48,42,34,93,81,60,29.89,29.70,8,3,0,0.00
2012-4-2,56,48,38,42,38,34,90,71,54,30.03,29.83,18,10,0,0.00
2012-4-3,63,50,41,53,44,37,95,80,66,30.00,29.84,15,6,0,0.49
2012-4-4,60,47,31,42,34,27,94,64,29,29.99,29.89,13,6,0,0.00
2012-4-5,50,41,33,33,30,28,85,67,46,30.18,29.96,16,6,0,0.00
2012-4-6,58,43,30,34,29,26,87,61,31,30.34,30.19,8,4,0,0.00
2012-4-7,63,47,29,39,33,27,91,63,31,30.31,30.09,12,3,0,0.00
2012-4-8,56,50,42,45,35,29,91,61,36,30.14,30.02,23,10,0,0.02
2012-4-9,54,45,36,40,30,21,93,60,28,30.02,29.86,25,10,0,0.00
2012-4-10,39,37,33,32,27,23,85,68,55,30.07,29.92,18,10,0,0.00
2012-4-11,55,42,30,32,29,26,84,62,34,30.24,30.07,15,6,0,0.00
2012-4-12,54,42,29,37,31,26,90,68,44,30.28,30.17,12,5,0,0.00
2012-4-13,63,49,28,39,33,26,94,60,33,30.24,30.05,11,4,0,0.00
2012-4-14,62,57,50,55,48,33,92,73,44,30.05,29.84,13,5,0,0.00
2012-4-15,71,63,56,63,59,54,97,88,73,29.84,29.62,19,6,0,0.67
2012-4-16,65,54,38,62,48,33,95,79,69,30.12,29.46,33,16,0,0.56
2012-4-17,51,40,32,37,32,29,89,74,51,30.40,30.13,11,5,0,0.00
2012-4-18,65,48,31,50,39,28,93,72,49,30.33,29.92,17,4,0,0.00
2012-4-19,65,56,46,55,51,45,96,84,63,29.96,29.76,13,4,0,0.10
2012-4-20,49,43,40,48,41,36,97,94,86,29.97,29.65,21,8,0,0.18
2012-4-21,53,42,32,37,31,25,96,67,37,30.05,29.96,13,5,0,0.01
2012-4-22,54,42,31,32,29,26,87,62,36,30.08,30.01,18,6,0,0.00
2012-4-23,56,44,30,30,24,18,79,50,29,30.05,29.72,28,11,0,0.00
2012-4-24,59,48,38,31,26,19,65,44,30,29.72,29.63,23,11,0,0.00
2012-4-25,61,47,33,48,37,27,92,70,39,29.80,29.69,15,4,0,0.06
2012-4-26,52,46,35,48,39,22,96,78,46,30.14,29.63,22,9,0,0.00
2012-4-27,53,40,26,34,27,22,86,61,36,30.28,30.15,15,6,0,0.00
2012-4-28,47,42,33,33,28,21,83,58,43,30.26,30.15,18,7,0,0.00
2012-4-29,60,47,26,40,31,23,93,58,31,30.36,30.14,16,6,0,0.03
2012-4-30,53,48,42,51,44,37,94,87,72,30.18,29.88,21,5,0,0.38
2012-5-1,61,53,48,53,49,46,94,84,72,30.05,29.89,13,4,0,0.00
2012-5-2,76,63,50,67,58,49,98,85,63,29.92,29.74,24,7,0,0.15
2012-5-3,80,69,62,70,63,59,95,82,63,29.91,29.78,21,4,0,0.21
2012-5-4,70,64,57,67,62,54,98,92,88,30.02,29.84,14,5,0,0.10
2012-5-5,59,54,50,56,49,39,93,83,63,30.10,29.97,15,7,0,0.07
2012-5-6,62,55,49,56,48,40,94,79,67,30.11,29.89,20,6,0,0.08
2012-5-7,55,52,48,54,50,45,96,92,77,29.94,29.81,16,5,0,0.08
2012-5-8,65,52,44,57,48,43,98,88,54,29.84,29.80,12,4,0,0.04
2012-5-9,60,52,46,51,44,36,95,77,49,29.90,29.78,19,7,0,0.02
2012-5-10,64,50,37,43,38,34,91,66,39,30.01,29.90,16,6,0,0.02
2012-5-11,71,56,39,49,41,36,91,61,32,30.12,30.02,16,5,0,0.01
2012-5-12,66,60,55,58,52,40,86,74,52,30.20,30.06,10,3,0,0.01
2012-5-13,73,60,50,41,36,31,60,43,23,30.24,30.08,10,4,0,0.01
2012-5-14,72,58,40,49,41,36,90,58,29,30.09,29.97,10,3,0,0.00
2012-5-15,77,64,46,55,47,-100,92,59,37,29.97,29.74,18,-8,0,0.05
2012-5-16,63,53,41,53,40,36,92,64,40,30.12,29.88,17,6,0,0.11
2012-5-17,70,55,37,46,39,34,93,60,34,30.21,30.07,7,2,0,0.02
2012-5-18,79,65,48,53,46,42,79,54,32,30.11,29.99,7,3,0,0.01
2012-5-19,86,69,47,63,52,45,93,58,28,30.08,30.00,9,2,0,0.00
2012-5-20,87,74,62,67,59,51,81,60,42,30.05,29.87,11,3,0,0.03
2012-5-21,67,59,52,60,52,43,94,79,52,30.07,29.93,16,7,0,0.02
2012-5-22,72,57,43,51,45,40,91,67,39,30.07,29.90,10,4,0,0.00
2012-5-23,78,62,45,56,50,43,96,68,35,29.93,29.77,10,2,0,0.00
2012-5-24,84,71,59,62,58,53,88,67,38,29.82,29.68,18,4,0,0.01
2012-5-27,79,73,61,67,63,57,86,72,63,30.05,29.83,16,9,0,0.00
2012-5-28,89,77,63,69,64,60,90,64,43,29.83,29.62,20,6,0,0.03
2012-5-29,75,67,56,63,55,46,96,67,38,29.79,29.65,15,7,0,0.16
2012-5-30,64,56,47,54,48,39,92,74,59,29.94,29.78,15,5,0,0.00
2012-5-31,57,50,42,49,43,39,93,79,61,30.02,29.89,10,4,0,0.08
2012-6-1,51,48,45,50,46,43,96,93,87,29.89,29.66,13,8,0,0.18
2012-6-2,69,56,46,53,49,44,94,79,50,29.72,29.62,21,9,0,0.08
2012-6-3,75,64,53,55,51,48,84,65,44,29.78,29.68,22,8,0,0.01
2012-6-4,74,63,52,55,52,48,88,68,44,29.92,29.77,8,4,0,0.00
2012-6-5,70,60,50,53,50,47,91,72,48,30.03,29.92,13,5,0,0.00
2012-6-6,78,63,47,55,51,45,99,67,35,30.07,30.00,9,2,0,0.00
2012-6-7,79,67,51,55,51,48,93,61,38,30.09,30.02,14,5,0,0.00
2012-6-8,80,68,48,59,53,45,90,61,41,30.03,29.86,15,6,0,0.00
2012-6-9,84,73,60,58,55,52,86,55,35,29.89,29.82,18,6,0,0.00
2012-6-10,89,74,55,64,59,53,94,63,37,29.96,29.87,11,3,0,0.00
2012-6-11,84,76,66,69,64,58,84,67,57,29.88,29.73,12,3,0,0.00
2012-6-12,73,65,48,68,51,45,89,62,47,30.09,29.74,19,8,0,0.00
2012-6-13,72,59,44,46,44,41,93,61,34,30.22,30.10,8,4,0,0.00
2012-6-14,81,66,52,52,46,41,71,50,25,30.20,30.05,13,4,0,0.00
2012-6-15,90,74,58,63,54,48,75,52,30,30.11,30.03,11,2,0,0.00
2012-6-16,88,74,62,70,63,54,92,69,45,30.07,29.83,13,3,0,0.10
2012-6-17,77,70,62,67,62,53,97,78,43,29.86,29.77,24,6,0,0.15
2012-6-18,88,73,60,76,65,57,96,78,51,29.86,29.63,27,6,0,0.26
2012-6-19,89,82,74,73,68,64,82,65,54,29.92,29.75,19,9,0,0.00
2012-6-20,89,80,70,71,67,63,83,65,51,29.98,29.82,17,6,0,0.00
2012-6-21,78,73,63,68,64,60,90,75,64,29.90,29.79,17,6,0,0.00
2012-6-22,78,68,59,62,58,53,95,72,47,29.96,29.90,13,5,0,0.01
2012-6-23,80,68,54,62,57,52,95,70,41,30.03,29.96,8,2,0,0.00
2012-6-24,82,71,59,65,61,57,95,73,50,30.00,29.88,17,4,0,0.00
2012-6-25,75,64,50,59,49,45,88,61,39,30.07,29.95,12,5,0,0.00
2012-6-26,79,66,49,56,50,45,88,60,37,30.08,29.93,12,2,0,0.00
2012-6-27,86,70,51,60,54,49,96,61,28,29.97,29.75,18,4,0,0.00
2012-6-28,91,79,66,77,67,57,82,68,61,29.79,29.67,16,4,0,0.00
2012-6-29,84,76,62,71,62,56,94,66,38,29.85,29.73,15,4,0,0.00
2012-6-30,84,74,62,70,64,59,94,74,52,29.82,29.74,13,6,0,0.00
2012-7-1,87,76,60,67,62,58,96,66,42,29.94,29.82,10,2,0,0.00
2012-7-2,94,78,60,70,63,58,93,64,31,29.98,29.86,10,2,0,0.00
2012-7-3,87,80,70,76,72,67,95,78,60,29.87,29.75,14,4,0,0.25
2012-7-4,94,83,73,79,74,70,92,75,57,29.81,29.75,13,5,0,0.00
2012-7-5,95,84,73,76,72,67,91,68,47,29.87,29.80,21,5,0,0.00
2012-7-6,99,85,70,77,73,69,95,70,41,29.91,29.84,11,2,0,0.00
2012-7-7,93,83,74,77,73,63,92,73,58,29.96,29.83,8,4,0,0.00
2012-7-8,83,74,64,64,60,56,89,64,41,30.04,29.96,13,4,0,0.00
2012-7-9,84,73,60,66,60,56,93,67,41,30.02,29.96,10,3,0,0.00
2012-7-10,84,71,57,59,56,52,91,63,34,30.11,30.02,10,3,0,0.00
2012-7-11,86,72,56,61,56,53,93,61,32,30.15,30.06,7,2,0,0.00
2012-7-12,89,74,55,61,55,53,93,57,30,30.11,30.03,6,2,0,0.00
2012-7-13,91,73,60,66,60,54,89,68,36,30.06,29.99,7,1,0,0.00
2012-7-14,91,80,70,71,65,62,79,62,43,30.03,29.91,14,3,0,0.00
2012-7-15,87,77,68,73,69,65,95,75,56,29.97,29.91,15,5,0,0.00
2012-7-16,93,83,65,72,68,63,95,61,46,29.97,29.77,16,6,0,0.00
2012-7-17,94,83,73,74,70,64,84,64,46,29.82,29.73,20,7,0,0.00
2012-7-18,88,77,70,73,70,65,94,80,59,29.93,29.79,8,4,0,0.03
2012-7-19,76,68,63,70,66,59,97,95,83,29.97,29.83,17,5,0,2.29
2012-7-20,81,70,60,64,61,56,94,74,44,30.08,29.98,12,5,0,0.00
2012-7-21,81,71,59,68,63,58,95,78,58,30.07,29.96,13,4,0,0.00
2012-7-22,86,76,66,73,68,62,94,75,55,30.04,29.96,12,4,0,0.00
2012-7-23,90,81,72,75,71,68,88,72,54,29.96,29.78,18,6,0,0.06
2012-7-24,85,77,67,72,63,57,88,65,39,29.94,29.81,10,4,0,0.00
2012-7-25,90,76,63,76,65,57,87,70,54,29.91,29.51,14,4,0,0.00
2012-7-26,84,75,68,73,70,65,96,84,62,29.71,29.55,14,5,0,0.42
2012-7-27,79,69,64,71,66,61,98,90,72,29.94,29.70,11,3,0,0.79
2012-7-28,81,70,59,64,60,57,95,75,45,30.09,29.95,11,3,0,0.01
2012-7-29,83,69,54,67,60,52,97,75,41,30.09,29.97,8,2,0,0.00
2012-7-30,87,74,60,67,63,58,97,73,47,29.98,29.80,10,2,0,0.00
2012-7-31,81,72,62,71,66,61,96,80,62,29.91,29.80,22,5,0,0.82
2012-8-1,82,69,56,67,61,54,98,78,49,29.94,29.80,9,2,0,0.00
2012-8-2,84,74,64,74,69,61,94,83,72,29.85,29.79,9,3,0,0.26
2012-8-3,90,78,66,75,70,65,97,78,52,29.88,29.83,8,2,0,0.00
2012-8-4,91,78,67,74,70,66,96,80,51,29.89,29.73,8,2,0,0.02
2012-8-5,76,71,56,73,63,54,96,78,56,30.11,29.77,20,7,0,0.00
2012-8-6,78,66,51,63,57,50,97,75,44,30.14,29.98,12,3,0,0.01
2012-8-7,84,71,55,68,60,53,95,73,46,29.98,29.88,14,4,0,0.00
2012-8-8,81,71,61,66,60,57,87,70,48,29.99,29.92,8,4,0,0.00
2012-8-9,67,64,60,64,61,57,95,91,72,29.94,29.84,16,4,0,0.23
2012-8-10,60,58,56,58,57,54,96,95,92,29.85,29.77,19,8,0,1.04
2012-8-11,74,66,59,62,58,55,95,78,59,29.94,29.80,18,7,0,0.01
2012-8-12,75,64,54,62,57,52,94,79,54,30.00,29.93,9,3,0,0.00
2012-8-13,68,64,61,64,61,59,96,90,79,29.96,29.92,4,0,0,0.09
2012-8-14,75,65,53,65,61,52,98,87,67,29.93,29.87,9,2,0,0.01
2012-8-15,81,67,57,68,61,56,98,82,51,29.93,29.87,8,1,0,0.01
2012-8-16,75,67,62,69,63,59,96,89,73,29.89,29.69,16,4,0,0.35
2012-8-17,69,62,52,59,55,49,93,79,59,29.98,29.82,15,6,0,0.00
2012-8-18,72,59,45,59,52,44,98,81,53,30.02,29.93,13,2,0,0.00
2012-8-19,74,59,47,61,55,46,98,86,56,29.95,29.88,9,1,0,0.22
2012-8-20,74,62,49,58,53,48,98,75,46,29.97,29.92,7,1,0,0.01
2012-8-21,75,62,47,61,54,46,98,77,48,30.07,29.98,11,2,0,0.00
2012-8-22,78,64,50,64,56,48,97,78,47,30.12,30.04,11,2,0,0.01
2012-8-23,85,68,52,68,58,51,97,75,41,30.10,30.02,10,2,0,0.00
2012-8-24,89,74,61,67,62,58,92,69,43,30.05,29.97,7,1,0,0.00
2012-8-25,90,73,57,69,63,56,97,73,42,30.04,29.98,6,1,0,0.00
2012-8-26,85,72,62,70,66,60,97,82,57,30.03,29.95,11,2,0,0.27
2012-8-27,82,73,62,71,65,55,98,79,44,30.02,29.94,12,3,0,0.00
2012-8-28,78,67,57,61,58,55,94,75,51,30.12,30.01,11,3,0,0.00
2012-8-29,81,67,53,63,58,51,96,75,48,30.10,29.99,6,1,0,0.00
2012-8-30,84,68,53,65,59,52,97,74,45,30.04,29.90,13,3,0,0.00
2012-8-31,84,74,62,69,64,58,90,71,55,30.04,29.92,19,6,0,0.00
2012-9-1,78,69,60,63,58,54,81,68,55,30.09,30.00,9,4,0,0.00
2012-9-2,83,72,64,66,62,59,88,72,47,30.01,29.90,14,7,0,0.00
2012-9-3,88,73,60,72,66,58,93,78,54,29.94,29.83,8,3,0,0.00
2012-9-4,85,74,66,72,68,65,97,84,61,29.87,29.79,6,1,0,0.16
2012-9-5,84,72,64,71,66,62,97,84,51,29.84,29.70,13,3,0,0.03
2012-9-6,81,70,58,66,62,55,97,78,48,29.90,29.78,14,2,0,0.01
2012-9-7,73,61,55,62,57,52,95,86,64,29.89,29.72,18,2,0,0.02
2012-9-8,68,58,49,56,52,47,97,82,54,29.82,29.72,16,6,0,0.01
2012-9-9,71,59,48,56,50,46,97,75,41,30.10,29.82,11,3,0,0.00
2012-9-10,73,58,42,54,49,41,97,74,48,30.21,30.10,8,2,0,0.00
2012-9-11,78,62,46,60,53,44,95,75,50,30.14,30.05,18,4,0,0.00
2012-9-12,83,67,55,64,57,52,92,72,43,30.13,30.07,15,4,0,0.00
2012-9-13,71,62,53,64,56,52,95,81,62,30.29,30.10,11,4,0,0.06
2012-9-14,71,57,44,56,48,41,97,76,39,30.30,30.23,16,4,0,0.01
2012-9-15,74,56,39,50,45,38,99,71,37,30.32,30.12,8,2,0,0.00
2012-9-16,76,60,46,59,49,44,93,70,36,30.12,29.97,15,4,0,0.00
2012-9-17,76,61,45,62,54,44,96,80,53,29.96,29.68,18,4,0,0.08
2012-9-18,59,52,44,58,46,34,97,82,44,29.95,29.68,20,6,0,0.02
2012-9-19,66,53,33,44,39,32,96,65,40,30.07,29.83,15,4,0,0.00
2012-9-20,65,57,46,52,46,41,96,69,44,29.86,29.77,18,6,0,0.03
2012-9-21,65,51,43,52,47,41,96,85,46,29.88,29.74,15,3,0,0.02
2012-9-22,58,49,40,48,44,39,96,85,59,30.09,29.71,16,4,0,0.17
2012-9-23,46,45,44,44,44,43,94,93,92,30.08,30.08,0,0,0,0.00
2012-9-25,72,60,52,56,48,-100,94,70,53,29.84,29.79,15,-25,0,0.00
2012-9-26,68,58,48,54,48,44,95,74,44,30.13,29.85,14,4,0,0.00
2012-9-27,64,54,46,49,47,43,88,76,58,30.24,30.13,13,5,0,0.00
2012-9-28,68,56,43,50,44,38,96,69,35,30.18,30.07,9,2,0,0.00
2012-9-29,73,56,39,53,44,37,94,68,37,30.10,29.93,11,4,0,0.00
2012-9-30,66,53,41,49,44,38,95,74,41,29.98,29.92,17,4,0,0.00
2012-10-1,66,51,35,51,43,33,97,76,44,29.94,29.84,7,1,0,0.00
2012-10-2,72,58,48,49,46,44,89,69,39,29.91,29.82,9,3,0,0.00
2012-10-3,60,57,54,59,54,50,96,89,75,29.99,29.89,7,1,0,0.12
2012-10-4,58,58,58,57,57,57,97,97,96,29.99,29.98,1,0,0,0.00
2012-10-6,47,42,41,38,32,-100,85,72,59,30.12,30.01,15,-24,0,0.00
2012-10-7,46,41,29,38,35,27,94,81,58,30.14,30.09,10,2,0,0.01
2012-10-8,55,42,28,37,32,26,95,69,40,30.15,30.03,22,4,0,0.00
2012-10-9,64,52,43,47,39,32,92,61,45,30.02,29.75,21,7,0,0.21
2012-10-10,44,40,36,40,35,28,96,81,57,30.14,29.82,17,6,0,0.18
2012-10-11,57,43,30,44,38,28,93,82,58,30.20,30.01,25,6,0,0.08
2012-10-12,51,38,30,38,30,24,93,74,36,30.47,30.23,7,2,0,0.00
2012-10-13,63,44,31,62,42,27,98,90,73,30.35,29.81,16,4,0,0.83
2012-10-14,68,61,49,63,59,47,97,93,76,29.81,29.37,23,8,0,0.86
2012-10-15,49,45,35,47,42,33,94,88,80,29.96,29.55,20,7,0,0.02
2012-10-16,60,45,30,46,39,29,97,81,56,29.97,29.63,10,2,0,0.00
2012-10-17,70,60,53,56,52,45,92,74,55,29.63,29.39,16,4,0,0.18
2012-10-18,59,51,44,55,47,40,96,86,70,29.56,29.22,21,8,0,0.64
2012-10-19,50,45,39,46,43,38,97,91,81,29.56,29.49,12,4,0,0.25
2012-10-20,54,45,37,47,42,35,97,89,70,29.89,29.55,12,4,0,0.01
2012-10-21,61,46,32,50,41,31,98,85,55,30.07,29.89,12,2,0,0.01
2012-10-22,68,54,39,60,51,37,97,88,75,30.04,29.89,8,1,0,0.65
2012-10-23,64,60,57,62,59,57,98,97,90,29.95,29.86,8,2,0,0.49
2012-10-24,73,64,54,65,61,54,98,89,76,29.96,29.87,7,2,0,0.01
2012-10-25,76,68,48,63,60,46,93,76,61,29.87,29.67,23,9,0,0.22
2012-10-26,49,43,36,45,35,31,94,76,54,30.30,29.88,17,8,0,0.06
2012-10-27,49,39,30,35,31,28,94,77,51,30.30,30.21,11,5,0,0.00
2012-10-28,48,39,33,31,27,-100,86,66,45,30.29,30.21,13,-11,0,0.00
2012-10-29,46,39,32,31,28,25,87,67,49,30.24,29.94,21,11,0,0.00
2012-10-30,40,39,37,37,33,25,92,80,57,29.93,29.64,29,14,0,0.08
2012-10-31,41,39,37,38,36,34,93,89,84,29.75,29.64,17,11,0,0.05
2012-11-1,47,40,36,36,32,26,88,73,48,29.84,29.74,18,8,0,0.00
2012-11-2,43,38,31,35,32,29,91,79,64,30.13,29.83,15,7,0,0.00
2012-11-3,42,36,29,32,30,27,95,81,66,30.23,30.13,8,3,0,0.00
2012-11-4,42,34,26,31,27,24,91,77,59,30.24,30.18,8,3,0,0.00
2012-11-5,38,32,25,30,27,23,92,83,70,30.25,30.16,8,3,0,0.00
2012-11-6,44,36,29,32,29,25,89,76,62,30.16,29.95,15,5,0,0.00
2012-11-7,46,36,25,32,29,23,92,76,54,30.17,29.97,12,4,0,0.00
2012-11-8,44,34,22,38,31,21,96,88,74,30.22,30.13,8,2,0,0.00
2012-11-9,54,45,34,43,39,32,94,79,63,30.15,30.04,8,3,0,0.00
2012-11-10,63,54,47,51,46,41,85,76,61,30.07,29.88,19,6,0,0.00
2012-11-11,69,62,52,55,51,47,95,68,59,29.98,29.78,25,12,0,0.15
2012-11-12,52,37,29,50,33,22,96,85,70,30.25,29.82,18,11,0,0.22
2012-11-13,37,29,21,25,22,19,94,75,56,30.53,30.26,14,3,0,0.00
2012-11-14,41,32,24,28,25,21,92,77,55,30.58,30.42,8,3,0,0.00
2012-11-15,44,32,23,34,27,21,95,84,65,30.44,30.35,9,2,0,0.00
2012-11-16,51,34,24,41,30,22,96,86,64,30.50,30.39,8,2,0,0.01
2012-11-17,52,35,23,39,29,22,97,80,46,30.59,30.51,11,2,0,0.00
2012-11-18,55,40,30,38,32,26,92,74,43,30.52,30.38,9,3,0,0.00
2012-11-19,54,42,30,38,33,-100,90,72,55,30.38,30.15,6,-10,0,0.00
2012-11-20,51,43,31,43,39,29,95,86,72,30.16,30.07,6,0,0,0.02
2012-11-21,50,43,31,47,41,30,97,93,87,30.23,30.09,12,2,0,0.01
2012-11-22,61,51,43,50,45,41,96,82,55,30.09,29.69,26,9,0,0.13
2012-11-23,55,37,30,49,30,23,90,77,68,30.08,29.66,28,16,0,0.00
2012-11-24,31,29,29,24,22,20,80,74,67,30.18,30.01,15,7,0,0.00
2012-11-25,36,31,27,30,26,22,89,82,76,30.02,29.83,14,6,0,0.00
2012-11-26,32,30,27,27,22,18,83,71,64,30.34,30.02,11,6,0,0.00
2012-11-27,33,26,17,23,20,14,87,78,65,30.38,30.22,13,4,0,0.00
2012-11-28,36,30,22,28,25,19,93,82,64,30.32,30.20,16,5,0,0.00
2012-11-29,47,35,26,37,30,24,92,83,61,30.27,30.15,16,4,0,0.01
2012-11-30,38,36,34,35,33,30,94,89,79,30.25,30.15,18,9,0,0.00
2012-12-1,57,42,34,53,39,32,96,90,82,30.22,29.88,22,9,0,0.05
2012-12-2,56,48,31,52,46,30,96,90,80,30.08,29.85,24,7,0,0.23
2012-12-3,64,51,33,59,50,32,100,95,80,30.09,29.77,25,7,0,0.01
2012-12-4,62,47,34,57,40,26,94,78,60,30.17,29.79,22,9,0,0.07
2012-12-5,37,30,25,25,23,21,87,73,59,30.43,30.18,16,5,0,0.00
2012-12-6,39,34,27,35,28,23,85,79,71,30.31,29.92,12,6,0,0.00
2012-12-7,44,40,38,39,36,35,94,86,73,29.96,29.88,7,2,0,0.00
2012-12-8,40,32,26,37,31,25,96,93,88,30.18,29.86,13,4,0,0.17
2012-12-9,33,30,29,31,28,27,96,91,87,30.18,29.69,19,6,0,0.00
2012-12-10,33,30,20,30,27,17,97,90,79,29.90,29.62,0,0,0,0.15
2012-12-11,34,27,16,29,23,14,94,85,71,30.09,29.91,18,4,0,0.00
2012-12-12,42,36,31,34,29,25,93,78,61,30.29,30.09,17,6,0,0.09
2012-12-13,46,37,29,33,27,25,84,70,44,30.29,30.09,17,8,0,0.00
2012-12-14,46,35,25,37,31,24,96,86,65,30.24,30.13,7,2,0,0.00
2012-12-15,45,37,31,44,35,29,97,91,79,30.13,29.59,15,7,0,0.45
2012-12-16,47,44,38,46,43,37,97,96,91,29.66,29.55,14,8,0,0.12
2012-12-17,40,36,28,37,34,27,95,89,75,29.71,29.65,13,4,0,0.00
2012-12-18,38,32,25,32,29,23,96,89,77,29.78,29.69,7,3,0,0.01
2012-12-19,38,34,29,36,32,28,98,94,85,30.10,29.75,8,2,0,0.07
2012-12-20,44,38,33,43,36,32,96,92,82,29.99,29.08,31,13,0,0.93
2012-12-21,38,32,29,35,29,26,95,87,79,30.03,29.15,32,18,0,0.03
2012-12-22,34,29,24,26,24,22,92,82,72,30.12,29.98,20,8,0,0.00
2012-12-23,30,26,20,26,22,18,99,86,76,30.07,29.90,11,4,0,0.00
2012-12-24,28,24,20,23,20,17,90,85,80,30.07,29.89,14,6,0,0.00
2012-12-25,30,24,17,24,20,15,94,82,69,30.37,30.08,10,4,0,0.00
2012-12-26,28,25,18,23,20,16,92,83,77,30.32,30.02,19,10,0,0.00
2012-12-27,32,24,19,24,20,16,90,83,67,30.18,30.06,13,4,0,0.00
2012-12-28,28,23,12,26,21,10,94,90,83,30.18,29.96,7,4,0,0.00
2012-12-29,30,26,19,25,23,16,94,89,81,30.11,29.89,10,4,0,0.02
2012-12-30,28,26,23,26,23,19,94,87,83,30.28,30.11,14,7,0,0.00
2012-12-31,36,29,24,30,24,16,92,83,72,30.11,29.93,18,9,0,0.00
2013-1-1,24,21,19,17,15,12,81,77,66,30.19,30.07,11,6,0,0.00